Time;durP1;ratioP1;P1;durP2;ratioP2;P2;SDS_P1;SDS_P2;PMS_P1;PMS_P2;Temp;Humidity;BMP_temperature;BMP_pressure;BME280_temperature;BME280_humidity;BME280_pressure;Samples;Min_cycle;Max_cycle;Signal;HPM_P1;HPM_P2
2021/06/09 00:02:22;;;;;;;5.38;3.10;;;22.60;55.40;;;;;;5033012;28;20486;-69
2021/06/09 00:04:48;;;;;;;5.53;3.08;;;22.60;55.50;;;;;;5035013;28;20472;-68
2021/06/09 00:07:13;;;;;;;6.00;3.20;;;22.60;55.50;;;;;;5034629;28;20458;-69
2021/06/09 00:09:39;;;;;;;5.43;3.50;;;22.50;55.50;;;;;;5034664;28;20034;-69
2021/06/09 00:12:05;;;;;;;5.07;3.10;;;22.50;55.50;;;;;;5034282;28;20033;-68
2021/06/09 00:14:31;;;;;;;6.38;3.80;;;22.50;55.50;;;;;;5033883;28;20029;-68
2021/06/09 00:16:57;;;;;;;5.47;3.20;;;22.50;55.50;;;;;;5034328;28;20025;-68
2021/06/09 00:19:27;;;;;;;4.90;3.00;;;22.50;55.60;;;;;;5033728;28;20033;-68
2021/06/09 00:21:54;;;;;;;5.72;3.58;;;22.50;55.60;;;;;;5048571;28;20028;-69
2021/06/09 00:24:20;;;;;;;5.45;3.60;;;22.50;55.60;;;;;;5032786;28;20030;-69
2021/06/09 00:26:47;;;;;;;5.07;3.15;;;22.50;55.60;;;;;;5033417;28;20024;-69
2021/06/09 00:29:13;;;;;;;5.45;3.63;;;22.50;55.60;;;;;;5049423;28;20025;-68
2021/06/09 00:31:39;;;;;;;6.38;3.72;;;22.50;55.70;;;;;;5033155;28;20032;-68
2021/06/09 00:34:05;;;;;;;5.97;3.88;;;22.50;55.70;;;;;;5033438;28;20028;-69
2021/06/09 00:36:31;;;;;;;4.53;3.08;;;22.40;55.70;;;;;;5033477;28;20017;-69
2021/06/09 00:38:57;;;;;;;5.22;3.10;;;22.50;55.80;;;;;;5039545;28;20029;-69
2021/06/09 00:41:22;;;;;;;5.38;3.30;;;22.50;55.70;;;;;;5035125;28;20021;-68
2021/06/09 00:43:48;;;;;;;6.05;3.72;;;22.50;55.70;;;;;;5036331;28;20172;-68
2021/06/09 00:46:14;;;;;;;7.05;3.22;;;22.50;55.80;;;;;;5035497;28;20033;-68
2021/06/09 00:48:42;;;;;;;5.47;3.25;;;22.40;55.80;;;;;;5036737;28;20041;-69
2021/06/09 00:51:16;;;;;;;6.10;3.28;;;22.40;55.80;;;;;;5036487;28;20523;-69
2021/06/09 00:53:51;;;;;;;5.13;3.08;;;22.40;55.80;;;;;;5036641;28;20029;-69
2021/06/09 00:56:18;;;;;;;6.03;3.53;;;22.40;55.80;;;;;;5036551;28;20037;-69
2021/06/09 00:58:46;;;;;;;6.07;3.58;;;22.40;55.80;;;;;;5036351;28;20033;-68
2021/06/09 01:01:13;;;;;;;7.10;3.72;;;22.40;55.80;;;;;;5036365;28;20021;-69
2021/06/09 01:03:40;;;;;;;5.85;3.53;;;22.40;55.80;;;;;;5036099;28;20040;-68
2021/06/09 01:06:06;;;;;;;6.45;3.30;;;22.40;55.80;;;;;;5036136;28;20026;-69
2021/06/09 01:08:34;;;;;;;5.90;3.97;;;22.40;55.80;;;;;;5036403;28;20068;-69
2021/06/09 01:11:00;;;;;;;5.03;3.30;;;22.40;55.80;;;;;;5036210;28;20036;-69
2021/06/09 01:13:28;;;;;;;5.35;3.20;;;22.40;55.80;;;;;;5036450;28;20025;-68
2021/06/09 01:15:54;;;;;;;6.53;3.47;;;22.40;55.80;;;;;;5036356;28;20547;-69
2021/06/09 01:18:21;;;;;;;6.25;3.80;;;22.40;55.80;;;;;;5036319;28;20037;-69
2021/06/09 01:20:47;;;;;;;6.00;3.75;;;22.30;55.70;;;;;;5036889;28;20037;-69
2021/06/09 01:23:12;;;;;;;6.70;3.80;;;22.40;55.70;;;;;;5044627;28;20018;-68
2021/06/09 01:25:38;;;;;;;6.22;3.70;;;22.40;55.70;;;;;;5040525;28;20511;-69
2021/06/09 01:28:05;;;;;;;5.32;3.40;;;22.40;55.70;;;;;;5044850;28;20025;-70
2021/06/09 01:30:31;;;;;;;5.82;3.40;;;22.40;55.80;;;;;;5046988;28;20025;-72
2021/06/09 01:32:57;;;;;;;5.45;3.60;;;22.30;55.80;;;;;;5046746;28;20092;-70
2021/06/09 01:35:23;;;;;;;5.70;3.45;;;22.30;55.80;;;;;;5046897;28;20092;-70
2021/06/09 01:37:50;;;;;;;6.50;4.10;;;22.30;55.80;;;;;;5046704;28;20037;-68
2021/06/09 01:40:18;;;;;;;7.45;3.85;;;22.30;55.80;;;;;;5047777;28;20065;-69
2021/06/09 01:42:44;;;;;;;6.82;3.88;;;22.30;55.90;;;;;;5046277;28;20058;-69
2021/06/09 01:45:14;;;;;;;5.45;3.35;;;22.30;55.80;;;;;;5046071;28;20497;-70
2021/06/09 01:47:40;;;;;;;5.18;3.42;;;22.30;55.90;;;;;;5046194;28;20037;-70
2021/06/09 01:50:11;;;;;;;6.50;4.35;;;22.30;55.80;;;;;;5038339;28;20104;-69
2021/06/09 01:52:37;;;;;;;5.45;3.20;;;22.30;55.90;;;;;;5050827;28;20546;-70
2021/06/09 01:55:05;;;;;;;5.72;3.55;;;22.30;55.80;;;;;;5035653;28;20025;-68
2021/06/09 01:57:31;;;;;;;6.47;3.97;;;22.30;55.90;;;;;;5035350;28;20013;-69
2021/06/09 01:59:56;;;;;;;5.88;3.83;;;22.30;55.80;;;;;;5035417;28;20036;-69
2021/06/09 02:02:22;;;;;;;6.20;3.88;;;22.20;55.90;;;;;;5035336;28;20376;-69
2021/06/09 02:04:48;;;;;;;5.95;3.75;;;22.30;55.80;;;;;;5035118;28;20042;-69
2021/06/09 02:07:13;;;;;;;5.97;3.63;;;22.20;55.90;;;;;;5035350;28;20343;-68
2021/06/09 02:09:39;;;;;;;5.75;3.47;;;22.20;55.90;;;;;;5035174;28;20037;-67
2021/06/09 02:12:07;;;;;;;6.60;3.80;;;22.20;55.90;;;;;;5042183;28;20028;-68
2021/06/09 02:14:33;;;;;;;6.00;3.80;;;22.20;55.90;;;;;;5042066;28;20022;-67
2021/06/09 02:16:59;;;;;;;5.70;3.90;;;22.20;55.90;;;;;;5036286;28;20471;-67
2021/06/09 02:19:25;;;;;;;7.53;4.18;;;22.20;55.90;;;;;;5034921;28;20046;-68
2021/06/09 02:21:52;;;;;;;6.65;4.07;;;22.20;56.00;;;;;;5034924;28;20100;-68
2021/06/09 02:24:19;;;;;;;6.78;4.15;;;22.20;56.00;;;;;;5034655;28;20044;-67
2021/06/09 02:26:45;;;;;;;6.75;3.92;;;22.20;56.10;;;;;;5034697;28;20025;-68
2021/06/09 02:29:13;;;;;;;5.53;3.80;;;22.20;56.10;;;;;;5034673;28;20029;-68
2021/06/09 02:31:50;;;;;;;6.43;3.80;;;22.20;56.00;;;;;;5034540;28;20112;-68
2021/06/09 02:34:24;;;;;;;6.45;4.30;;;22.20;56.10;;;;;;5035028;28;20108;-67
2021/06/09 02:36:53;;;;;;;5.75;3.95;;;22.20;56.00;;;;;;5042033;28;20030;-67
2021/06/09 02:39:20;;;;;;;6.68;4.20;;;22.20;56.10;;;;;;5037858;28;20485;-67
2021/06/09 02:41:47;;;;;;;7.03;4.35;;;22.20;56.10;;;;;;5034618;28;20045;-67
2021/06/09 02:44:13;;;;;;;9.38;4.00;;;22.10;56.10;;;;;;5034148;28;20489;-68
2021/06/09 02:46:51;;;;;;;8.23;4.10;;;22.20;56.10;;;;;;5034284;28;20029;-67
2021/06/09 02:49:21;;;;;;;6.32;4.03;;;22.10;56.10;;;;;;5034353;28;20083;-67
2021/06/09 02:51:50;;;;;;;7.43;4.18;;;22.10;56.20;;;;;;5034425;28;20029;-68
2021/06/09 02:54:30;;;;;;;6.45;4.05;;;22.10;56.20;;;;;;5034226;28;20367;-68
2021/06/09 02:57:25;;;;;;;6.38;3.90;;;22.10;56.30;;;;;;5034178;28;20022;-66
2021/06/09 03:00:02;;;;;;;6.60;4.50;;;22.10;56.40;;;;;;5033569;28;20033;-67
2021/06/09 03:02:43;;;;;;;6.80;4.43;;;22.10;56.30;;;;;;5049316;28;20032;-67
2021/06/09 03:05:21;;;;;;;7.45;4.30;;;22.10;56.30;;;;;;5033656;28;20128;-67
2021/06/09 03:08:00;;;;;;;7.43;4.45;;;22.10;56.30;;;;;;5034665;28;20026;-68
2021/06/09 03:10:40;;;;;;;7.50;4.50;;;22.10;56.40;;;;;;5039556;28;20029;-67
2021/06/09 03:13:16;;;;;;;6.90;4.75;;;22.10;56.40;;;;;;5037789;28;20022;-67
2021/06/09 03:16:14;;;;;;;6.18;3.75;;;22.10;56.50;;;;;;5034057;28;20021;-66
2021/06/09 03:18:47;;;;;;;6.32;3.92;;;22.10;56.50;;;;;;5039390;28;20037;-67
2021/06/09 03:21:23;;;;;;;6.00;3.80;;;22.00;56.50;;;;;;5034024;28;20030;-67
2021/06/09 03:24:10;;;;;;;6.47;4.07;;;22.00;56.50;;;;;;5033759;28;20091;-67
2021/06/09 03:27:00;;;;;;;6.75;4.45;;;22.00;56.60;;;;;;5049043;28;20087;-67
2021/06/09 03:29:54;;;;;;;6.75;4.22;;;22.00;56.60;;;;;;5033612;28;20079;-67
2021/06/09 03:32:31;;;;;;;7.63;4.80;;;22.00;56.60;;;;;;5033646;28;20481;-67
2021/06/09 03:35:02;;;;;;;6.57;4.55;;;22.00;56.60;;;;;;5033522;28;20473;-67
2021/06/09 03:37:31;;;;;;;7.57;4.78;;;22.00;56.70;;;;;;5033479;28;20025;-67
2021/06/09 03:39:58;;;;;;;7.03;4.85;;;22.00;56.60;;;;;;5033209;28;20018;-67
2021/06/09 03:42:29;;;;;;;6.80;4.70;;;22.00;56.70;;;;;;5033394;28;20033;-66
2021/06/09 03:44:57;;;;;;;6.78;4.30;;;22.00;56.70;;;;;;5048326;28;20400;-67
2021/06/09 03:47:23;;;;;;;6.68;4.30;;;22.00;56.80;;;;;;5033340;28;20056;-67
2021/06/09 03:49:50;;;;;;;7.03;4.43;;;22.00;56.70;;;;;;5033361;28;20080;-67
2021/06/09 03:52:17;;;;;;;6.68;4.45;;;22.00;56.80;;;;;;5033429;28;20025;-67
2021/06/09 03:54:47;;;;;;;6.70;4.35;;;22.00;56.80;;;;;;5033089;28;20117;-67
2021/06/09 03:57:15;;;;;;;6.70;4.40;;;22.00;56.80;;;;;;5048293;28;20025;-67
2021/06/09 03:59:45;;;;;;;7.25;4.55;;;22.00;56.90;;;;;;5032914;28;20112;-69
2021/06/09 04:02:10;;;;;;;6.82;4.15;;;22.00;56.80;;;;;;5033178;28;20105;-68
2021/06/09 04:04:36;;;;;;;7.05;4.63;;;22.00;56.80;;;;;;5032886;28;20573;-68
2021/06/09 04:07:04;;;;;;;5.72;3.90;;;22.00;56.80;;;;;;5033183;28;20028;-68
2021/06/09 04:09:31;;;;;;;6.63;4.57;;;22.00;56.80;;;;;;5033452;28;20022;-68
2021/06/09 04:12:01;;;;;;;6.68;4.65;;;22.00;56.90;;;;;;5032828;28;20478;-67
2021/06/09 04:14:37;;;;;;;6.57;4.53;;;22.00;56.90;;;;;;5032915;28;20034;-67
2021/06/09 04:17:05;;;;;;;6.68;4.38;;;22.00;56.90;;;;;;5036764;28;20044;-67
2021/06/09 04:19:33;;;;;;;7.15;4.47;;;22.00;56.90;;;;;;5036930;28;20029;-68
2021/06/09 04:22:02;;;;;;;6.38;4.43;;;22.00;56.90;;;;;;5036788;28;20022;-67
2021/06/09 04:24:29;;;;;;;7.75;4.68;;;22.00;56.90;;;;;;5036687;28;20036;-67
2021/06/09 04:26:55;;;;;;;7.57;4.72;;;22.00;56.90;;;;;;5037242;28;20481;-68
2021/06/09 04:29:23;;;;;;;6.63;4.43;;;21.90;56.90;;;;;;5038494;28;20104;-68
2021/06/09 04:31:48;;;;;;;6.97;4.90;;;22.00;56.90;;;;;;5038500;28;20022;-67
2021/06/09 04:34:14;;;;;;;7.00;4.60;;;21.90;56.90;;;;;;5036964;28;20084;-68
2021/06/09 04:36:40;;;;;;;7.13;5.03;;;21.90;56.90;;;;;;5036679;28;20028;-68
2021/06/09 04:39:06;;;;;;;7.97;4.85;;;21.90;56.90;;;;;;5036740;28;20071;-67
2021/06/09 04:41:32;;;;;;;7.07;4.45;;;22.00;56.90;;;;;;5036761;28;20055;-67
2021/06/09 04:43:58;;;;;;;6.20;3.95;;;22.00;56.90;;;;;;5036397;28;20049;-68
2021/06/09 04:46:24;;;;;;;7.55;4.47;;;22.00;56.90;;;;;;5036505;28;20535;-68
2021/06/09 04:49:09;;;;;;;6.43;4.72;;;22.00;56.90;;;;;;5035243;28;20034;-67
2021/06/09 04:51:38;;;;;;;6.32;4.30;;;22.00;56.90;;;;;;5036354;28;20451;-67
2021/06/09 04:54:06;;;;;;;7.47;4.75;;;22.00;56.90;;;;;;5036641;28;20099;-67
2021/06/09 04:56:38;;;;;;;8.02;5.00;;;21.90;56.90;;;;;;5036665;28;20036;-67
2021/06/09 04:59:06;;;;;;;7.22;4.80;;;22.00;56.90;;;;;;5037018;28;20030;-68
2021/06/09 05:01:32;;;;;;;7.00;4.72;;;21.90;56.80;;;;;;5036839;28;20021;-68
2021/06/09 05:03:57;;;;;;;7.32;4.93;;;21.90;56.90;;;;;;5043817;28;20092;-68
2021/06/09 05:06:25;;;;;;;8.35;4.57;;;21.90;56.80;;;;;;5036047;28;20521;-68
2021/06/09 05:08:50;;;;;;;9.32;5.07;;;22.00;56.90;;;;;;5034761;28;20199;-67
2021/06/09 05:11:23;;;;;;;6.82;4.55;;;22.00;56.80;;;;;;5036255;28;20481;-68
2021/06/09 05:13:52;;;;;;;6.68;4.57;;;21.90;56.90;;;;;;5035861;28;20503;-69
2021/06/09 05:16:21;;;;;;;6.78;4.63;;;22.00;56.80;;;;;;5043229;28;20033;-68
2021/06/09 05:18:52;;;;;;;6.97;4.35;;;21.90;56.80;;;;;;5046817;28;20017;-68
2021/06/09 05:21:21;;;;;;;6.95;4.70;;;21.90;56.80;;;;;;5038395;28;20124;-67
2021/06/09 05:23:50;;;;;;;7.22;4.78;;;22.00;56.80;;;;;;5036082;28;20021;-69
2021/06/09 05:26:16;;;;;;;7.30;5.10;;;21.90;56.80;;;;;;5035713;28;20025;-67
2021/06/09 05:28:50;;;;;;;6.10;4.47;;;22.00;56.80;;;;;;5035880;28;20022;-68
2021/06/09 05:31:18;;;;;;;6.55;4.45;;;22.00;56.70;;;;;;5035954;28;20026;-67
2021/06/09 05:33:46;;;;;;;6.53;4.28;;;22.00;56.70;;;;;;5043897;28;20033;-69
2021/06/09 05:36:13;;;;;;;7.53;4.93;;;22.00;56.60;;;;;;5043490;28;20029;-67
2021/06/09 05:38:39;;;;;;;7.57;5.22;;;22.00;56.60;;;;;;5036114;28;20489;-67
2021/06/09 05:41:05;;;;;;;7.63;4.93;;;22.00;56.60;;;;;;5035874;28;20560;-67
2021/06/09 05:43:31;;;;;;;8.10;5.18;;;22.00;56.60;;;;;;5035891;28;20050;-68
2021/06/09 05:46:04;;;;;;;7.05;4.70;;;22.00;56.50;;;;;;5035769;28;20026;-67
2021/06/09 05:48:29;;;;;;;6.75;4.65;;;22.00;56.50;;;;;;5034614;28;20033;-68
2021/06/09 05:50:57;;;;;;;6.55;4.47;;;22.00;56.60;;;;;;5035648;28;20492;-68
2021/06/09 05:53:24;;;;;;;7.05;4.60;;;22.00;56.50;;;;;;5035644;28;20032;-68
2021/06/09 05:55:50;;;;;;;7.70;5.10;;;22.00;56.40;;;;;;5035484;28;20029;-67
2021/06/09 05:58:19;;;;;;;7.65;4.93;;;22.00;56.40;;;;;;5035619;28;20040;-67
2021/06/09 06:00:49;;;;;;;6.85;4.60;;;22.00;56.30;;;;;;5035036;28;20528;-68
2021/06/09 06:03:15;;;;;;;7.63;5.13;;;22.00;56.30;;;;;;5035683;28;20083;-67
2021/06/09 06:05:43;;;;;;;7.78;4.90;;;22.00;56.30;;;;;;5035214;28;20033;-68
2021/06/09 06:08:08;;;;;;;7.38;4.63;;;22.00;56.30;;;;;;5040392;28;20105;-69
2021/06/09 06:10:34;;;;;;;7.20;5.10;;;22.00;56.30;;;;;;5042576;28;20049;-69
2021/06/09 06:13:00;;;;;;;7.80;5.00;;;22.00;56.20;;;;;;5043089;28;20022;-69
2021/06/09 06:15:26;;;;;;;8.10;5.10;;;22.00;56.20;;;;;;5038423;28;20508;-68
2021/06/09 06:17:52;;;;;;;6.78;4.70;;;22.00;56.20;;;;;;5035129;28;20022;-68
2021/06/09 06:20:22;;;;;;;7.68;5.38;;;22.10;56.20;;;;;;5035198;28;20381;-68
2021/06/09 06:22:49;;;;;;;17.83;12.27;;;22.10;56.20;;;;;;5034536;28;20040;-67
2021/06/09 06:25:22;;;;;;;27.20;19.30;;;22.00;58.50;;;;;;5034228;28;20037;-67
2021/06/09 06:27:49;;;;;;;24.15;18.98;;;22.00;60.40;;;;;;5036869;28;20021;-68
2021/06/09 06:30:17;;;;;;;33.40;22.30;;;21.90;61.00;;;;;;5046898;28;20505;-67
2021/06/09 06:32:44;;;;;;;31.30;24.23;;;21.70;62.00;;;;;;5033487;28;20033;-67
2021/06/09 06:35:14;;;;;;;37.55;27.50;;;21.70;62.70;;;;;;5033833;28;20048;-67
2021/06/09 06:37:42;;;;;;;35.30;27.10;;;21.70;63.40;;;;;;5033098;28;20354;-67
2021/06/09 06:40:08;;;;;;;35.17;28.63;;;21.50;63.80;;;;;;5033630;28;20101;-67
2021/06/09 06:42:35;;;;;;;34.03;26.83;;;21.50;64.30;;;;;;5054901;28;20021;-67
2021/06/09 06:45:01;;;;;;;38.28;30.40;;;21.60;64.10;;;;;;5056421;28;20055;-67
2021/06/09 06:47:27;;;;;;;36.03;29.20;;;21.60;64.20;;;;;;5053522;28;20021;-67
2021/06/09 06:49:54;;;;;;;33.72;27.73;;;21.70;64.00;;;;;;5036378;28;20388;-67
2021/06/09 06:52:20;;;;;;;42.97;29.55;;;21.70;64.10;;;;;;5036405;28;20026;-67
2021/06/09 06:54:46;;;;;;;37.67;28.20;;;21.90;63.50;;;;;;5036683;28;20057;-67
2021/06/09 06:57:13;;;;;;;38.80;29.15;;;21.90;63.50;;;;;;5047079;28;20032;-67
2021/06/09 06:59:39;;;;;;;33.92;27.35;;;21.90;63.70;;;;;;5053013;28;20397;-67
2021/06/09 07:02:06;;;;;;;40.30;28.70;;;21.90;63.80;;;;;;5051385;28;20017;-69
2021/06/09 07:04:32;;;;;;;38.00;29.75;;;21.80;64.00;;;;;;5042289;28;20083;-68
2021/06/09 07:06:58;;;;;;;36.58;28.23;;;21.70;64.20;;;;;;5044364;28;20017;-68
2021/06/09 07:09:24;;;;;;;36.28;26.77;;;21.70;64.40;;;;;;5052168;28;20078;-68
2021/06/09 07:11:54;;;;;;;35.70;27.90;;;21.80;64.60;;;;;;5043797;28;20488;-69
2021/06/09 07:14:29;;;;;;;35.67;27.10;;;21.80;64.10;;;;;;5042061;28;20025;-69
2021/06/09 07:16:56;;;;;;;33.22;25.75;;;21.90;64.50;;;;;;5037469;28;20029;-68
2021/06/09 07:19:21;;;;;;;32.47;24.88;;;22.00;64.10;;;;;;5052105;28;20064;-68
2021/06/09 07:21:47;;;;;;;28.60;23.50;;;22.00;63.50;;;;;;5051229;28;20056;-68
2021/06/09 07:24:15;;;;;;;26.95;22.95;;;21.90;64.00;;;;;;5040690;28;20037;-67
2021/06/09 07:26:48;;;;;;;28.75;23.00;;;22.00;63.50;;;;;;5046324;28;20021;-69
2021/06/09 07:29:18;;;;;;;27.35;23.35;;;22.00;63.30;;;;;;5052435;28;20021;-69
2021/06/09 07:31:46;;;;;;;27.13;21.88;;;22.00;63.30;;;;;;5050924;28;20033;-71
2021/06/09 07:34:12;;;;;;;26.55;20.60;;;22.00;63.10;;;;;;5050415;28;20456;-67
2021/06/09 07:36:53;;;;;;;26.05;19.40;;;22.00;62.50;;;;;;5048108;28;20184;-70
2021/06/09 07:39:25;;;;;;;23.60;18.73;;;22.10;61.90;;;;;;5041999;28;20080;-68
2021/06/09 07:41:53;;;;;;;23.10;18.40;;;22.20;61.50;;;;;;5032117;28;20116;-67
2021/06/09 07:44:20;;;;;;;24.55;18.83;;;22.20;61.40;;;;;;5037053;28;20055;-68
2021/06/09 07:46:47;;;;;;;27.55;18.50;;;22.20;61.50;;;;;;5039674;28;20025;-68
2021/06/09 07:49:14;;;;;;;20.05;17.00;;;22.30;61.30;;;;;;5030712;28;20030;-68
2021/06/09 07:51:42;;;;;;;25.23;17.77;;;22.30;61.20;;;;;;5029791;28;20120;-69
2021/06/09 07:54:10;;;;;;;20.25;16.52;;;22.30;61.30;;;;;;5041919;28;20129;-68
2021/06/09 07:56:39;;;;;;;22.25;17.33;;;22.30;61.30;;;;;;5028328;28;20080;-67
2021/06/09 07:59:06;;;;;;;21.13;16.30;;;22.40;61.30;;;;;;5049447;28;20174;-67
2021/06/09 08:01:32;;;;;;;25.40;17.10;;;22.40;61.00;;;;;;5050551;28;20048;-67
2021/06/09 08:03:58;;;;;;;20.30;15.85;;;22.40;60.90;;;;;;5047167;28;20541;-68
2021/06/09 08:06:25;;;;;;;19.63;15.80;;;22.40;61.10;;;;;;5050562;28;20067;-69
2021/06/09 08:08:51;;;;;;;20.52;15.27;;;22.50;61.00;;;;;;5049343;28;20559;-69
2021/06/09 08:11:17;;;;;;;25.25;14.98;;;22.50;61.00;;;;;;5041821;28;20049;-69
2021/06/09 08:13:43;;;;;;;18.65;14.20;;;22.50;61.00;;;;;;5035950;28;21812;-69
2021/06/09 08:16:17;;;;;;;19.33;14.27;;;22.50;60.80;;;;;;5041336;28;20491;-67
2021/06/09 08:18:44;;;;;;;19.60;15.20;;;22.50;60.90;;;;;;5033232;28;20029;-69
2021/06/09 08:21:13;;;;;;;17.30;13.80;;;22.50;60.80;;;;;;5055828;28;20064;-69
2021/06/09 08:23:42;;;;;;;17.90;12.70;;;22.60;60.80;;;;;;5058293;28;20025;-68
2021/06/09 08:26:09;;;;;;;17.15;12.10;;;22.50;60.60;;;;;;5048756;28;20063;-71
2021/06/09 08:28:36;;;;;;;17.52;12.77;;;22.60;60.60;;;;;;5050465;28;20461;-69
2021/06/09 08:31:07;;;;;;;16.23;12.38;;;22.60;60.70;;;;;;5049763;28;20028;-68
2021/06/09 08:33:35;;;;;;;13.77;9.80;;;22.60;60.40;;;;;;5040330;28;20021;-71
2021/06/09 08:36:02;;;;;;;15.07;10.40;;;22.70;60.40;;;;;;5047519;28;20025;-70
2021/06/09 08:38:27;;;;;;;15.38;11.57;;;22.70;60.20;;;;;;5050644;28;20033;-69
2021/06/09 08:40:53;;;;;;;15.63;11.25;;;22.70;60.20;;;;;;5045763;28;20021;-69
2021/06/09 08:43:21;;;;;;;13.35;11.70;;;22.70;60.20;;;;;;5044826;28;20053;-68
2021/06/09 08:45:48;;;;;;;13.57;10.85;;;22.70;60.10;;;;;;5049914;28;20041;-70
2021/06/09 08:48:14;;;;;;;15.20;11.05;;;22.70;60.00;;;;;;5041605;28;20017;-70
2021/06/09 08:50:42;;;;;;;13.57;10.38;;;22.70;60.00;;;;;;5046660;28;20029;-69
2021/06/09 08:53:09;;;;;;;13.10;10.50;;;22.80;59.80;;;;;;5052546;28;20367;-71
2021/06/09 08:55:36;;;;;;;19.60;10.60;;;22.70;59.70;;;;;;5061212;28;20021;-71
2021/06/09 08:58:06;;;;;;;15.32;10.43;;;22.80;59.80;;;;;;5058107;28;20021;-69
2021/06/09 09:00:33;;;;;;;15.15;10.63;;;22.80;59.40;;;;;;5061825;28;20120;-71
2021/06/09 09:03:02;;;;;;;15.30;10.48;;;22.80;59.50;;;;;;5060485;28;20039;-72
2021/06/09 09:05:28;;;;;;;15.85;9.95;;;22.80;59.30;;;;;;5061617;28;20056;-69
2021/06/09 09:07:57;;;;;;;14.65;9.93;;;22.80;59.30;;;;;;5062957;28;20021;-71
2021/06/09 09:10:24;;;;;;;12.52;9.82;;;22.80;59.20;;;;;;5063064;28;20025;-68
2021/06/09 09:12:51;;;;;;;12.93;9.60;;;22.90;59.20;;;;;;5046870;28;20114;-71
2021/06/09 09:15:16;;;;;;;14.02;10.60;;;22.90;58.90;;;;;;5051865;28;20128;-69
2021/06/09 09:17:53;;;;;;;14.55;10.50;;;22.90;58.80;;;;;;5054443;28;20108;-69
2021/06/09 09:20:22;;;;;;;13.45;10.13;;;22.90;58.80;;;;;;5053689;28;20090;-69
2021/06/09 09:22:49;;;;;;;13.85;10.18;;;22.90;58.90;;;;;;5053010;28;20033;-67
2021/06/09 09:25:18;;;;;;;12.63;9.40;;;22.90;58.80;;;;;;5051797;28;20089;-68
2021/06/09 09:28:01;;;;;;;12.48;9.73;;;22.90;58.60;;;;;;5051814;28;20025;-68
2021/06/09 09:30:30;;;;;;;13.60;9.87;;;23.00;58.50;;;;;;5047983;28;20065;-72
2021/06/09 09:33:02;;;;;;;12.27;9.02;;;23.00;58.30;;;;;;5051343;28;20355;-67
2021/06/09 09:35:31;;;;;;;16.13;10.05;;;23.00;58.20;;;;;;5047725;28;20090;-67
2021/06/09 09:38:10;;;;;;;16.80;8.80;;;23.00;58.30;;;;;;5047874;28;20021;-69
2021/06/09 09:40:36;;;;;;;11.05;8.40;;;23.00;58.30;;;;;;5052981;28;20523;-70
2021/06/09 09:43:02;;;;;;;13.80;8.90;;;23.00;58.30;;;;;;5053251;28;20072;-70
2021/06/09 09:45:30;;;;;;;12.50;9.02;;;23.00;58.10;;;;;;5052724;28;20025;-69
2021/06/09 09:48:07;;;;;;;14.82;8.93;;;23.00;58.20;;;;;;5054345;28;20101;-70
2021/06/09 09:50:37;;;;;;;15.10;8.50;;;23.10;57.90;;;;;;5053966;28;20480;-70
2021/06/09 09:53:21;;;;;;;13.70;8.50;;;23.10;57.80;;;;;;5053323;28;20442;-67
2021/06/09 09:56:10;;;;;;;11.43;7.72;;;23.20;57.40;;;;;;5053152;28;20057;-70
2021/06/09 09:59:01;;;;;;;14.63;9.13;;;23.10;57.40;;;;;;5050932;28;20048;-69
2021/06/09 10:01:29;;;;;;;9.32;6.88;;;23.20;57.60;;;;;;5054337;28;20021;-71
2021/06/09 10:04:00;;;;;;;14.95;8.75;;;23.10;57.60;;;;;;5044218;28;20100;-70
2021/06/09 10:06:31;;;;;;;10.38;8.45;;;23.10;57.80;;;;;;5032454;28;20599;-71
2021/06/09 10:09:05;;;;;;;10.52;7.25;;;23.20;57.20;;;;;;5050908;28;20096;-70
2021/06/09 10:11:31;;;;;;;;;;;23.20;57.20;;;;;;5051535;28;20033;-71
2021/06/09 10:13:56;;;;;;;11.02;7.45;;;23.30;57.20;;;;;;5051790;28;20423;-70
2021/06/09 10:16:34;;;;;;;12.93;8.73;;;23.30;57.20;;;;;;5056491;28;20435;-69
2021/06/09 10:19:08;;;;;;;10.32;7.43;;;23.30;57.10;;;;;;5053023;28;20514;-68
2021/06/09 10:21:41;;;;;;;;;;;23.20;57.10;;;;;;5053420;28;20174;-68
2021/06/09 10:24:09;;;;;;;12.50;7.43;;;23.30;57.00;;;;;;5052891;28;19923;-68
2021/06/09 10:26:35;;;;;;;10.95;7.85;;;23.30;56.80;;;;;;5052663;28;20040;-70
2021/06/09 10:29:14;;;;;;;11.02;7.32;;;23.40;56.70;;;;;;5052770;28;20032;-69
2021/06/09 10:31:49;;;;;;;9.98;8.15;;;23.40;56.60;;;;;;5052759;28;20361;-68
2021/06/09 10:34:15;;;;;;;11.93;7.65;;;23.40;56.60;;;;;;5048554;28;20489;-69
2021/06/09 10:36:44;;;;;;;13.48;8.23;;;23.40;56.70;;;;;;5050904;28;20098;-70
2021/06/09 10:39:11;;;;;;;9.90;7.65;;;23.40;56.60;;;;;;5052624;28;20499;-70
2021/06/09 10:41:44;;;;;;;11.77;7.97;;;23.50;55.90;;;;;;5052207;28;20104;-68
2021/06/09 10:44:12;;;;;;;10.07;7.03;;;23.50;56.20;;;;;;5057371;28;20037;-68
2021/06/09 10:46:40;;;;;;;10.40;7.82;;;23.50;56.10;;;;;;5057381;28;20547;-69
2021/06/09 10:49:06;;;;;;;10.88;7.65;;;23.50;56.40;;;;;;5057075;28;20036;-70
2021/06/09 10:51:32;;;;;;;12.20;7.75;;;23.50;56.30;;;;;;5053256;28;20017;-69
2021/06/09 10:54:00;;;;;;;9.45;7.15;;;23.50;56.20;;;;;;5049480;28;20035;-68
2021/06/09 10:56:26;;;;;;;10.80;7.50;;;23.50;55.90;;;;;;5049649;28;20231;-68
2021/06/09 10:58:52;;;;;;;10.68;7.47;;;23.50;55.80;;;;;;5050704;28;20064;-69
2021/06/09 11:01:22;;;;;;;11.50;8.57;;;23.60;55.70;;;;;;5040699;28;20107;-69
2021/06/09 11:03:49;;;;;;;11.68;7.20;;;23.60;55.40;;;;;;5048942;28;20074;-67
2021/06/09 11:06:14;;;;;;;10.63;7.88;;;23.60;55.60;;;;;;5042070;28;20854;-67
2021/06/09 11:08:40;;;;;;;11.07;7.63;;;23.60;55.20;;;;;;5050118;28;20037;-65
2021/06/09 11:11:17;;;;;;;11.50;8.40;;;23.80;54.10;;;;;;5047611;28;20028;-65
2021/06/09 11:13:45;;;;;;;10.85;7.85;;;23.90;53.70;;;;;;5038823;28;20530;-67
2021/06/09 11:16:17;;;;;;;10.07;6.85;;;23.80;54.00;;;;;;5049799;28;20025;-68
2021/06/09 11:18:46;;;;;;;9.63;6.90;;;23.70;54.40;;;;;;5054465;28;20082;-68
2021/06/09 11:21:22;;;;;;;9.52;6.60;;;23.80;54.40;;;;;;5060914;28;20075;-68
2021/06/09 11:23:48;;;;;;;8.32;6.43;;;23.80;54.50;;;;;;5043365;28;20048;-68
2021/06/09 11:26:28;;;;;;;12.88;6.15;;;23.80;54.50;;;;;;5032784;28;20064;-67
2021/06/09 11:28:54;;;;;;;12.15;6.65;;;23.80;54.50;;;;;;5044430;28;20048;-68
2021/06/09 11:31:28;;;;;;;10.43;6.60;;;23.80;54.70;;;;;;5052075;28;20087;-68
2021/06/09 11:34:04;;;;;;;9.52;6.32;;;23.80;54.70;;;;;;5043749;28;20380;-68
2021/06/09 11:36:36;;;;;;;8.30;6.40;;;23.80;54.80;;;;;;5050796;28;20033;-68
2021/06/09 11:39:18;;;;;;;9.10;6.80;;;23.80;54.60;;;;;;5049667;28;20411;-68
2021/06/09 11:41:46;;;;;;;10.35;7.32;;;23.90;54.50;;;;;;5051885;28;20029;-68
2021/06/09 11:44:37;;;;;;;9.68;6.30;;;23.80;54.50;;;;;;5042229;28;20042;-68
2021/06/09 11:47:16;;;;;;;10.65;7.32;;;23.90;54.10;;;;;;5032025;28;20435;-68
2021/06/09 11:49:41;;;;;;;10.32;7.30;;;24.00;53.70;;;;;;5036531;28;20021;-68
2021/06/09 11:52:07;;;;;;;8.57;5.80;;;24.00;53.20;;;;;;5049650;28;20036;-68
2021/06/09 11:54:33;;;;;;;9.90;6.93;;;24.10;52.90;;;;;;5051505;28;20033;-67
2021/06/09 11:57:06;;;;;;;10.48;6.18;;;24.20;52.90;;;;;;5050480;28;20090;-68
2021/06/09 11:59:37;;;;;;;12.77;6.22;;;24.10;53.10;;;;;;5046289;28;20025;-67
2021/06/09 12:02:08;;;;;;;15.02;6.32;;;24.20;52.90;;;;;;5050030;28;20092;-68
2021/06/09 12:04:47;;;;;;;22.65;7.55;;;24.20;52.80;;;;;;5051538;28;20033;-68
2021/06/09 12:07:31;;;;;;;17.13;7.97;;;24.20;52.70;;;;;;5047966;28;20029;-67
2021/06/09 12:10:01;;;;;;;11.93;6.03;;;24.30;52.50;;;;;;5051449;28;20040;-68
2021/06/09 12:12:29;;;;;;;21.55;6.63;;;24.20;52.70;;;;;;5051007;28;20433;-67
2021/06/09 12:15:07;;;;;;;14.80;6.72;;;24.30;52.70;;;;;;5046449;28;20021;-67
2021/06/09 12:17:36;;;;;;;19.05;7.20;;;24.30;52.60;;;;;;5050069;28;20029;-67
2021/06/09 12:20:08;;;;;;;14.10;7.13;;;24.40;52.10;;;;;;5043579;28;20028;-68
2021/06/09 12:22:39;;;;;;;18.65;7.03;;;24.40;52.00;;;;;;5051143;28;20032;-69
2021/06/09 12:25:05;;;;;;;19.38;6.88;;;24.40;51.90;;;;;;5051188;28;20111;-69
2021/06/09 12:27:32;;;;;;;11.55;5.22;;;24.40;52.10;;;;;;5051987;28;20123;-66
2021/06/09 12:29:58;;;;;;;19.45;6.82;;;24.40;52.00;;;;;;5050063;28;20511;-67
2021/06/09 12:32:27;;;;;;;13.43;6.80;;;24.50;51.90;;;;;;5041138;28;20032;-68
2021/06/09 12:34:58;;;;;;;13.20;5.38;;;24.50;51.80;;;;;;5049462;28;20047;-67
2021/06/09 12:37:25;;;;;;;15.35;6.03;;;24.50;52.00;;;;;;5050455;28;20056;-67
2021/06/09 12:40:04;;;;;;;13.45;6.85;;;24.50;51.90;;;;;;5046061;28;20056;-67
2021/06/09 12:42:30;;;;;;;13.45;6.05;;;24.70;50.90;;;;;;5055027;28;20568;-67
2021/06/09 12:45:03;;;;;;;11.02;6.53;;;24.80;50.50;;;;;;5054801;28;20076;-67
2021/06/09 12:47:40;;;;;;;10.38;5.50;;;24.70;50.40;;;;;;5054760;28;20029;-67
2021/06/09 12:50:10;;;;;;;8.95;5.82;;;24.60;50.80;;;;;;5053299;28;20056;-67
2021/06/09 12:52:36;;;;;;;7.70;4.90;;;24.70;50.40;;;;;;5054556;28;20025;-67